Airfield :
LOGIN :

Register | Disclaimer

   EN    FR    IT 

 










Legend :    VFR   Marginal VFR   IFR   Intensive IFR   Very Intensive IFR
Visi :
Ceiling :
>= 8 km
>= 3000ft
5 to 8 km
1000 to 3000 ft
1500m to 5 km
500 to 1000 ft
800 to 1500m
200 to 500 ft
< 800m
< 200 ft
Symbols :   Thunderstorms  Fog  Heavy snow  Heavy precipitations  Wind > 20 kt
SIGMETs :     Misc.  Thunderstorms  Icing  Turbulence  Mountain Waves  Volcanic Ashes






- Airport Elevation : 276 ft


LYVR - Vršac International

CURRENT METAR :
  • 281530Z 14015KT 9999 SCT040 10/04 Q1008 NOSIG

EXPIRED METARs :
  • 281500Z 14016KT 9999 SCT040 10/04 Q1008 NOSIG
  • 281430Z 16017KT 9999 SCT040 09/04 Q1008 NOSIG
  • 281400Z 15016KT 110V170 9999 SCT040 09/04 Q1009 NOSIG
  • 281330Z 15017KT 120V180 9999 SCT040 09/04 Q1009 NOSIG
  • 281300Z 15016KT 9999 SCT040 09/04 Q1009 NOSIG
  • 281230Z 15016KT 9999 BKN040 09/04 Q1009 NOSIG

TAF TAF LYVR
Valid from the 28 at 12:00 until the 29 at 12:00 UTC


281100Z 2812/2912 15016KT 9999 SCT040 TX10/2813Z TN02/2906Z
TEMPO 2812/2821 14018G28KT
BECMG 2821/2823 27008KT
TEMPO 2821/2903 30015G25KT 5000 SHRA SCT023TCU BKN030



MET'MAP, your aeronautical weather chart ! - Copyright ORBIFLY December 2007 - Disclaimer

ORBIFLY MET'MAP TEAM :

Programming & Development : Alexandra Zaïnal
Concept & original design : Baudouin d'Aumeries
Assistance for programming : Marc-Olivier Méhu
Technical & hardware support : Manuel Goepfert

Contact : metmap@orbifly.com




SOURCES & CREDITS :

   NOAA